Time;durP1;ratioP1;P1;durP2;ratioP2;P2;SDS_P1;SDS_P2;PMS_P1;PMS_P2;Temp;Humidity;BMP_temperature;BMP_pressure;BME280_temperature;BME280_humidity;BME280_pressure;Samples;Min_cycle;Max_cycle;Signal;HPM_P1;HPM_P2
2021/09/21 00:01:19;;;;;;;5.85;5.32;;;;;;;29.26;69.51;100824.91;5104756;27;66332;-35
2021/09/21 00:04:07;;;;;;;6.03;5.45;;;;;;;29.49;69.61;100862.25;5111280;27;69763;-35
2021/09/21 00:06:38;;;;;;;8.10;5.45;;;;;;;29.53;69.42;100868.88;5114511;27;66377;-35
2021/09/21 00:09:10;;;;;;;5.50;5.00;;;;;;;29.50;69.19;100869.31;5112338;27;69881;-35
2021/09/21 00:11:42;;;;;;;5.88;5.38;;;;;;;29.46;69.16;100868.09;5107202;27;66687;-35
2021/09/21 00:14:13;;;;;;;7.07;6.45;;;;;;;29.36;68.88;100863.94;5107141;27;69927;-35
2021/09/21 00:17:02;;;;;;;7.32;5.90;;;;;;;29.20;69.17;100848.19;5110969;27;66352;-35
2021/09/21 00:19:33;;;;;;;6.70;6.07;;;;;;;29.32;69.17;100884.31;5111674;27;69827;-35
2021/09/21 00:22:05;;;;;;;13.32;12.25;;;;;;;29.28;68.81;100883.09;5106279;27;65718;-35
2021/09/21 00:24:37;;;;;;;10.05;8.88;;;;;;;29.25;69.66;100888.06;5113157;27;69914;-35
2021/09/21 00:27:09;;;;;;;9.57;8.75;;;;;;;29.21;69.97;100890.34;5104340;27;65269;-35
2021/09/21 00:29:44;;;;;;;7.65;7.05;;;;;;;29.24;69.68;100889.94;5102738;27;70620;-36
2021/09/21 00:32:19;;;;;;;9.15;8.18;;;;;;;29.22;69.46;100883.91;5110691;27;66109;-36
2021/09/21 00:35:08;;;;;;;7.32;6.75;;;;;;;29.29;69.42;100894.72;5107879;27;69300;-35
2021/09/21 00:37:59;;;;;;;6.70;6.20;;;;;;;29.33;68.97;100902.19;5113501;27;66284;-35
2021/09/21 00:40:33;;;;;;;10.52;6.43;;;;;;;29.32;69.34;100902.41;5118671;27;70832;-35
2021/09/21 00:43:07;;;;;;;7.80;5.90;;;;;;;29.32;69.61;100905.09;5113525;27;66337;-35
2021/09/21 00:45:41;;;;;;;12.13;5.78;;;;;;;29.30;69.83;100901.78;5113139;27;70124;-36
2021/09/21 00:48:30;;;;;;;5.65;5.25;;;;;;;29.27;69.67;100897.63;5115568;27;66253;-35
2021/09/21 00:51:20;;;;;;;6.88;6.20;;;;;;;29.31;70.35;100909.69;5115814;27;69521;-35
2021/09/21 00:54:12;;;;;;;9.73;6.10;;;;;;;29.28;70.38;100903.84;5110599;27;66010;-36
2021/09/21 00:57:12;;;;;;;6.30;5.90;;;;;;;29.28;70.53;100904.69;5101503;27;70862;-35
2021/09/21 00:59:47;;;;;;;6.93;5.77;;;;;;;29.28;71.04;100910.09;5110861;27;66389;-35
2021/09/21 01:02:20;;;;;;;6.80;5.63;;;;;;;29.34;70.86;100914.66;5106097;27;69545;-35
2021/09/21 01:05:13;;;;;;;13.85;5.97;;;;;;;29.34;70.47;100920.06;5107896;27;65958;-35
2021/09/21 01:07:57;;;;;;;6.43;5.53;;;;;;;29.37;70.47;100922.34;5115478;27;70689;-35
2021/09/21 01:10:33;;;;;;;6.50;6.00;;;;;;;29.41;69.86;100914.66;5111079;27;65419;-36
2021/09/21 01:13:07;;;;;;;6.43;5.90;;;;;;;29.45;70.03;100921.31;5096933;27;70555;-36
2021/09/21 01:15:43;;;;;;;8.82;6.15;;;;;;;29.48;69.88;100920.06;5108062;27;66398;-39
2021/09/21 01:18:19;;;;;;;8.50;6.07;;;;;;;29.49;70.33;100924.41;5107489;27;70420;-36
2021/09/21 01:20:59;;;;;;;6.63;6.15;;;;;;;29.55;69.61;100926.28;5108654;27;65632;-36
2021/09/21 01:23:50;;;;;;;10.32;6.75;;;;;;;29.53;70.37;100933.75;5092138;27;69979;-37
2021/09/21 01:26:27;;;;;;;6.20;5.80;;;;;;;29.62;69.75;100932.50;5097840;27;64914;-36
2021/09/21 01:29:14;;;;;;;8.82;6.10;;;;;;;29.70;69.53;100926.91;5110650;27;70927;-36
2021/09/21 01:31:51;;;;;;;6.40;5.78;;;;;;;29.73;69.63;100912.97;5109917;27;66157;-36
2021/09/21 01:34:28;;;;;;;5.72;4.65;;;;;;;29.79;68.56;100912.13;5101518;27;70292;-37
2021/09/21 01:37:16;;;;;;;6.10;4.90;;;;;;;29.84;68.34;100920.44;5107903;27;66326;-37
2021/09/21 01:40:26;;;;;;;5.30;4.90;;;;;;;29.78;68.45;100915.03;5110557;27;69526;-37
2021/09/21 01:43:08;;;;;;;7.72;4.47;;;;;;;29.91;67.96;100914.16;5110596;27;66579;-36
2021/09/21 01:45:48;;;;;;;5.47;5.00;;;;;;;29.94;68.04;100908.31;5102256;27;71181;-35
2021/09/21 01:48:44;;;;;;;5.82;5.35;;;;;;;30.00;67.63;100907.47;5100388;27;67888;-36
2021/09/21 01:51:35;;;;;;;9.85;6.55;;;;;;;29.94;68.00;100883.97;5084163;27;69209;-37
2021/09/21 02:00:43;;;;;;;6.53;5.90;;;;;;;30.19;67.41;100895.72;5101224;27;67368;-35
2021/09/21 02:03:19;;;;;;;7.90;6.18;;;;;;;30.24;67.37;100893.25;5109333;27;70198;-35
2021/09/21 02:06:24;;;;;;;16.38;6.90;;;;;;;30.19;67.62;100878.66;5109889;27;66410;-36
2021/09/21 02:08:59;;;;;;;8.07;7.68;;;;;;;30.28;67.86;100894.50;5105305;27;70413;-35
2021/09/21 02:11:34;;;;;;;5.40;5.00;;;;;;;30.30;66.22;100885.31;5105543;27;66211;-35
2021/09/21 02:14:14;;;;;;;8.13;4.95;;;;;;;30.33;66.63;100891.13;5094768;27;70399;-36
2021/09/21 02:16:51;;;;;;;5.32;4.93;;;;;;;30.35;67.06;100893.63;5082516;27;66501;-35
2021/09/21 02:19:29;;;;;;;;;;;;;;;30.07;67.20;100897.47;5126500;27;70094;-36
2021/09/21 02:22:28;;;;;;;4.85;4.47;;;;;;;30.37;66.58;100891.50;5109231;27;67033;-36
2021/09/21 02:25:06;;;;;;;12.80;6.95;;;;;;;30.40;66.92;100891.09;5106328;27;70248;-35
2021/09/21 02:27:51;;;;;;;8.63;7.70;;;;;;;30.41;66.83;100888.16;5107967;27;66126;-36
2021/09/21 02:30:41;;;;;;;9.52;8.93;;;;;;;30.43;67.46;100882.53;5108100;27;71367;-36
2021/09/21 02:33:32;;;;;;;11.98;11.13;;;;;;;30.47;67.38;100884.56;5079055;27;66443;-36
2021/09/21 02:40:13;;;;;;;13.55;12.43;;;;;;;30.54;67.30;100887.25;5090538;27;65997;-35
2021/09/21 02:42:51;;;;;;;14.18;12.73;;;;;;;30.56;67.15;100874.31;5076280;27;69854;-36
2021/09/21 02:45:26;;;;;;;22.25;20.00;;;;;;;30.59;67.42;100871.19;5087931;27;65320;-36
2021/09/21 02:48:08;;;;;;;24.42;22.52;;;;;;;30.64;67.04;100892.19;5088131;27;69767;-36
2021/09/21 02:50:42;;;;;;;33.70;30.52;;;;;;;30.65;66.83;100873.03;5082405;27;65337;-35
2021/09/21 02:53:18;;;;;;;54.53;48.85;;;;;;;30.65;67.30;100873.03;5107682;27;69810;-36
2021/09/21 02:55:57;;;;;;;72.72;65.10;;;;;;;30.68;67.50;100875.28;5106368;27;66364;-36
2021/09/21 02:58:30;;;;;;;72.95;65.35;;;;;;;30.71;67.65;100874.84;5108989;27;69651;-36
2021/09/21 03:01:14;;;;;;;66.78;59.47;;;;;;;30.69;66.99;100868.00;5107656;27;65605;-36
2021/09/21 03:04:01;;;;;;;57.22;51.22;;;;;;;30.76;66.93;100867.94;5085182;27;70300;-41
2021/09/21 03:06:42;;;;;;;55.00;48.97;;;;;;;30.78;67.03;100868.53;5075790;27;66087;-36
2021/09/21 03:09:36;;;;;;;65.70;58.65;;;;;;;30.82;67.11;100876.06;5106500;27;70632;-36
2021/09/21 03:12:44;;;;;;;59.95;53.67;;;;;;;30.84;67.11;100870.41;5111190;27;66394;-36
2021/09/21 03:18:44;;;;;;;53.67;48.33;;;;;;;30.89;66.78;100857.84;5085959;27;66448;-36
2021/09/21 03:21:17;;;;;;;48.20;43.22;;;;;;;30.89;66.99;100854.31;5085681;27;69268;-36
2021/09/21 03:24:09;;;;;;;77.00;68.85;;;;;;;30.93;66.84;100858.25;5105129;27;66325;-38
2021/09/21 03:26:52;;;;;;;127.13;114.45;;;;;;;30.98;66.62;100861.16;5089431;27;69527;-36
2021/09/21 03:29:45;;;;;;;127.03;114.47;;;;;;;30.99;66.32;100856.53;5104931;27;66109;-36
2021/09/21 03:32:20;;;;;;;67.72;60.55;;;;;;;31.01;64.36;100852.56;5086964;27;69992;-43
2021/09/21 03:34:52;;;;;;;82.68;73.97;;;;;;;31.06;64.41;100847.28;5108433;27;66700;-36
2021/09/21 03:37:40;;;;;;;59.67;53.55;;;;;;;31.09;63.34;100852.28;5110151;27;70005;-36
2021/09/21 03:40:11;;;;;;;46.33;40.28;;;;;;;31.11;62.92;100855.59;5109117;27;68167;-39
2021/09/21 03:42:42;;;;;;;44.80;40.20;;;;;;;31.14;63.64;100855.13;5107334;27;70367;-37
2021/09/21 03:45:14;;;;;;;37.58;33.95;;;;;;;31.16;63.08;100854.91;5104230;27;65857;-37
2021/09/21 03:47:46;;;;;;;31.05;28.30;;;;;;;31.20;62.98;100858.00;5086223;27;70804;-37
2021/09/21 03:50:18;;;;;;;24.50;22.35;;;;;;;31.23;62.87;100854.84;5104632;27;65918;-37
2021/09/21 03:53:05;;;;;;;21.00;19.10;;;;;;;31.21;62.74;100832.59;5106321;27;70643;-37
2021/09/21 03:55:37;;;;;;;18.42;16.83;;;;;;;31.30;62.70;100833.94;5072059;27;65951;-35
2021/09/21 03:58:08;;;;;;;;;;;;;;;31.05;63.02;100828.56;5088745;27;70346;-36
2021/09/21 04:00:39;;;;;;;12.80;11.73;;;;;;;31.33;62.63;100820.75;5107116;27;65912;-37
2021/09/21 04:03:10;;;;;;;11.13;10.00;;;;;;;31.39;62.02;100821.78;5094884;27;70814;-36
2021/09/21 04:05:42;;;;;;;9.85;8.98;;;;;;;31.43;62.34;100814.03;5105540;27;64759;-35
2021/09/21 04:10:08;;;;;;;9.10;8.57;;;;;;;31.23;63.33;100809.63;5030387;27;2793410;-35
2021/09/21 04:12:40;;;;;;;9.05;8.38;;;;;;;31.22;62.67;100807.97;5101254;27;69173;-36
2021/09/21 04:15:28;;;;;;;7.95;7.30;;;;;;;31.22;62.67;100807.97;5104376;27;66102;-35
2021/09/21 04:18:16;;;;;;;7.20;6.70;;;;;;;31.25;62.51;100791.25;5086578;27;70037;-35
2021/09/21 04:21:04;;;;;;;7.93;6.95;;;;;;;31.25;62.68;100787.72;5103423;27;65523;-35
2021/09/21 04:23:39;;;;;;;8.23;6.88;;;;;;;31.28;62.83;100789.97;5101764;27;69271;-42
2021/09/21 04:26:11;;;;;;;6.50;5.88;;;;;;;31.30;62.97;100777.03;5087564;27;66766;-34
2021/09/21 04:28:42;;;;;;;7.00;6.60;;;;;;;31.31;62.68;100773.25;5095921;27;69377;-37
2021/09/21 04:31:32;;;;;;;7.00;6.50;;;;;;;31.35;62.93;100769.06;5115941;27;66392;-35
2021/09/21 04:34:04;;;;;;;5.90;5.35;;;;;;;31.39;62.74;100767.56;5094498;27;69477;-35
2021/09/21 04:36:52;;;;;;;6.82;4.88;;;;;;;31.34;61.87;100749.25;5089204;27;66157;-35
2021/09/21 04:39:23;;;;;;;5.65;5.25;;;;;;;31.39;61.90;100754.00;5102457;27;70463;-38
2021/09/21 04:41:54;;;;;;;5.53;5.10;;;;;;;31.43;62.11;100749.81;5098296;27;65575;-35
2021/09/21 04:44:25;;;;;;;6.00;4.60;;;;;;;31.46;61.99;100743.94;5102557;27;69130;-35
2021/09/21 04:47:12;;;;;;;5.47;4.68;;;;;;;31.53;62.35;100739.22;5093997;27;66123;-35
2021/09/21 04:49:43;;;;;;;4.30;4.00;;;;;;;31.54;62.37;100742.81;5101009;27;70238;-34
2021/09/21 04:52:15;;;;;;;7.95;4.88;;;;;;;31.53;61.65;100731.09;5118901;27;67500;-36
2021/09/21 04:55:01;;;;;;;4.82;4.32;;;;;;;31.55;62.04;100733.59;5099590;27;70197;-34
2021/09/21 04:57:49;;;;;;;4.82;4.40;;;;;;;31.57;61.69;100728.78;5100214;27;66357;-35
2021/09/21 05:00:21;;;;;;;5.30;4.07;;;;;;;31.60;61.97;100729.16;5106294;27;70204;-36
2021/09/21 05:02:55;;;;;;;4.90;4.13;;;;;;;31.63;61.49;100710.78;5088629;27;66420;-36
2021/09/21 05:05:26;;;;;;;3.95;3.47;;;;;;;31.59;61.46;100722.06;5096643;27;69501;-35
2021/09/21 05:07:58;;;;;;;4.10;3.72;;;;;;;31.67;61.07;100711.94;5095174;27;66428;-36
2021/09/21 05:10:31;;;;;;;5.60;3.50;;;;;;;31.68;60.72;100713.59;5088487;27;69680;-35
2021/09/21 05:13:02;;;;;;;5.50;3.72;;;;;;;31.69;60.05;100709.84;5082561;27;65175;-35
2021/09/21 05:15:34;;;;;;;3.70;3.40;;;;;;;31.71;60.59;100700.41;5111707;27;69710;-35
2021/09/21 05:18:05;;;;;;;2.75;2.42;;;;;;;31.82;60.07;100701.53;5105418;27;66376;-35
2021/09/21 05:20:53;;;;;;;6.03;2.50;;;;;;;31.67;58.78;100701.09;5087113;27;70146;-36
2021/09/21 05:23:23;;;;;;;2.70;2.50;;;;;;;31.63;58.88;100686.38;5082609;27;66616;-36
2021/09/21 05:26:11;;;;;;;9.38;2.70;;;;;;;31.49;57.83;100683.81;5081995;27;69712;-35
2021/09/21 05:28:58;;;;;;;14.48;2.40;;;;;;;31.45;56.45;100677.19;5094698;27;66392;-35
2021/09/21 05:31:29;;;;;;;6.07;2.08;;;;;;;31.39;55.95;100672.69;5080789;27;69556;-35
2021/09/21 05:34:02;;;;;;;2.30;2.10;;;;;;;31.31;53.93;100659.44;5081904;27;66113;-36
2021/09/21 05:36:33;;;;;;;2.05;1.70;;;;;;;31.29;53.37;100653.44;5050547;27;69026;-35
2021/09/21 05:39:05;;;;;;;2.10;1.90;;;;;;;31.25;54.57;100652.22;5067747;27;65520;-35
2021/09/21 05:41:53;;;;;;;2.40;1.98;;;;;;;30.99;51.38;100621.69;5086370;27;69160;-37
2021/09/21 05:44:40;;;;;;;2.00;1.80;;;;;;;31.12;51.76;100645.06;5085154;27;66357;-35
2021/09/21 05:47:12;;;;;;;2.30;1.88;;;;;;;31.06;51.96;100625.13;5085076;27;70963;-35
2021/09/21 05:49:43;;;;;;;1.73;1.52;;;;;;;31.07;50.28;100632.22;5061952;27;65275;-35
2021/09/21 05:52:15;;;;;;;2.38;1.58;;;;;;;31.08;51.14;100623.03;5059996;27;71158;-35
2021/09/21 05:54:46;;;;;;;2.88;1.42;;;;;;;31.03;49.86;100625.59;5057566;27;66402;-37
2021/09/21 05:57:16;;;;;;;1.70;1.60;;;;;;;31.01;49.58;100619.59;5083795;27;69817;-35
2021/09/21 05:59:48;;;;;;;1.75;1.65;;;;;;;30.95;48.55;100617.78;5094802;27;66611;-36
2021/09/21 06:02:23;;;;;;;1.98;1.80;;;;;;;30.91;47.86;100612.00;5064929;28;69373;-35
2021/09/21 06:04:55;;;;;;;1.60;1.50;;;;;;;30.86;47.59;100608.31;5088441;27;66066;-34
2021/09/21 06:07:26;;;;;;;1.40;1.30;;;;;;;30.85;49.49;100612.91;5071126;27;69737;-34
2021/09/21 06:10:13;;;;;;;1.50;1.40;;;;;;;30.80;49.27;100587.56;5088608;27;66676;-36
2021/09/21 06:12:45;;;;;;;1.43;1.30;;;;;;;30.84;47.92;100600.44;5076978;27;69796;-36
2021/09/21 06:15:19;;;;;;;6.47;1.53;;;;;;;30.80;47.18;100587.56;5085106;27;66360;-35
2021/09/21 06:17:50;;;;;;;1.52;1.42;;;;;;;30.78;46.75;100586.91;5083002;27;69301;-35
2021/09/21 06:20:22;;;;;;;1.67;1.30;;;;;;;30.78;47.11;100585.03;5082986;27;66173;-36
2021/09/21 06:23:10;;;;;;;1.27;1.15;;;;;;;30.79;46.48;100575.88;5075254;27;69373;-36
2021/09/21 06:25:59;;;;;;;1.42;1.13;;;;;;;30.77;46.62;100577.16;5068723;27;66133;-37
2021/09/21 06:28:34;;;;;;;1.40;1.27;;;;;;;30.73;46.76;100579.50;5071860;27;69971;-35
2021/09/21 06:31:05;;;;;;;1.07;0.97;;;;;;;30.72;46.17;100585.94;5084646;27;66163;-36
2021/09/21 06:33:39;;;;;;;2.83;1.20;;;;;;;30.84;47.62;100583.34;5082637;27;70052;-36
2021/09/21 06:36:10;;;;;;;1.87;1.73;;;;;;;30.88;48.10;100582.66;5078958;27;66679;-35
2021/09/21 06:38:41;;;;;;;1.80;1.60;;;;;;;30.97;48.34;100583.16;5077827;27;69405;-35
2021/09/21 06:41:13;;;;;;;1.88;1.52;;;;;;;31.07;49.84;100586.19;5076267;27;66337;-36
2021/09/21 06:43:46;;;;;;;1.42;1.33;;;;;;;31.20;50.18;100592.47;5077260;27;70208;-36
2021/09/21 06:46:36;;;;;;;3.70;1.48;;;;;;;31.16;50.09;100582.09;5078256;27;66766;-34
2021/09/21 06:49:23;;;;;;;1.60;1.50;;;;;;;31.31;50.86;100599.81;5095426;27;69755;-39
2021/09/21 06:52:12;;;;;;;2.75;1.58;;;;;;;31.40;50.98;100614.75;5082084;27;66604;-34
2021/09/21 06:54:45;;;;;;;1.77;1.67;;;;;;;31.39;51.63;100630.16;5078411;27;69682;-35
2021/09/21 06:57:17;;;;;;;2.13;1.67;;;;;;;31.46;51.66;100635.50;5079952;27;66074;-35
2021/09/21 07:00:10;;;;;;;2.72;2.13;;;;;;;31.14;52.74;100578.78;5053039;27;70682;-36
2021/09/21 07:02:47;;;;;;;2.22;2.03;;;;;;;31.49;53.72;100626.91;5071503;27;64890;-36
2021/09/21 07:05:42;;;;;;;2.20;1.92;;;;;;;31.49;55.28;100635.03;5079396;27;70327;-35
2021/09/21 07:08:30;;;;;;;2.28;2.08;;;;;;;31.48;55.32;100617.13;5046369;27;66792;-36
2021/09/21 07:11:21;;;;;;;2.50;2.20;;;;;;;31.58;55.73;100616.56;5066386;27;70096;-35
2021/09/21 07:13:54;;;;;;;1.67;1.58;;;;;;;31.62;57.56;100615.00;5071789;27;66187;-35
2021/09/21 07:16:32;;;;;;;2.45;2.03;;;;;;;31.60;57.94;100601.72;5082757;27;69318;-36
2021/09/21 07:19:11;;;;;;;2.63;2.08;;;;;;;31.65;57.48;100590.19;5089571;27;65981;-35
2021/09/21 07:22:08;;;;;;;4.25;2.40;;;;;;;31.60;58.83;100582.72;5073654;27;70595;-35
2021/09/21 07:24:44;;;;;;;2.97;2.28;;;;;;;31.66;58.59;100580.16;5098542;27;66484;-36
2021/09/21 07:27:21;;;;;;;7.90;2.08;;;;;;;31.66;58.51;100570.13;5087586;27;70131;-35
2021/09/21 07:29:55;;;;;;;2.97;2.40;;;;;;;31.44;60.14;100540.03;5089903;27;65457;-35
2021/09/21 07:32:27;;;;;;;2.58;2.33;;;;;;;31.57;59.47;100552.56;5089557;27;70049;-35
2021/09/21 07:35:02;;;;;;;2.40;2.20;;;;;;;31.39;59.64;100526.34;5088346;27;66407;-35
2021/09/21 07:37:39;;;;;;;2.72;2.00;;;;;;;31.60;60.00;100554.78;5091535;27;70253;-35
2021/09/21 07:40:13;;;;;;;3.53;2.38;;;;;;;31.64;59.67;100547.84;5081131;27;66165;-36
2021/09/21 07:42:47;;;;;;;17.02;2.40;;;;;;;31.67;59.78;100530.28;5054903;27;70088;-36
2021/09/21 07:45:24;;;;;;;6.53;2.20;;;;;;;31.50;61.21;100501.13;5070694;27;66380;-35
2021/09/21 07:47:59;;;;;;;9.40;2.20;;;;;;;31.63;61.44;100488.44;5069615;27;70078;-36
2021/09/21 07:50:31;;;;;;;10.80;2.13;;;;;;;31.54;62.57;100479.81;5063282;27;65349;-37
2021/09/21 07:53:21;;;;;;;11.52;2.10;;;;;;;31.52;63.56;100471.91;5088926;27;70131;-35
2021/09/21 07:55:54;;;;;;;9.45;2.90;;;;;;;31.51;63.83;100464.84;5079362;27;66380;-36
2021/09/21 07:58:42;;;;;;;9.43;2.35;;;;;;;31.47;64.73;100447.38;5085538;27;71815;-36
2021/09/21 08:01:18;;;;;;;3.35;2.22;;;;;;;31.45;64.14;100448.69;5055867;27;66373;-36
2021/09/21 08:04:11;;;;;;;2.80;1.98;;;;;;;31.33;64.13;100438.63;5080861;27;70424;-36
2021/09/21 08:06:59;;;;;;;3.37;2.13;;;;;;;31.32;63.70;100449.72;5087440;27;66473;-37
2021/09/21 08:09:34;;;;;;;2.65;2.00;;;;;;;31.35;63.87;100460.91;5086070;27;69998;-36
2021/09/21 08:12:10;;;;;;;3.85;2.33;;;;;;;31.29;64.33;100466.44;5064269;27;65757;-36
2021/09/21 08:14:58;;;;;;;2.40;1.90;;;;;;;31.26;64.19;100467.72;5085967;27;69462;-36
2021/09/21 08:17:34;;;;;;;2.38;1.70;;;;;;;31.23;64.19;100457.38;5047094;28;65486;-36
2021/09/21 08:20:08;;;;;;;6.03;2.58;;;;;;;31.21;64.74;100436.97;5087016;27;69116;-37
2021/09/21 08:22:56;;;;;;;2.75;2.55;;;;;;;31.06;63.78;100405.72;5080629;27;65829;-36
2021/09/21 08:25:30;;;;;;;2.60;2.40;;;;;;;31.16;65.14;100441.19;5082302;27;70170;-39
2021/09/21 08:28:25;;;;;;;2.60;2.03;;;;;;;31.10;65.17;100458.38;5085581;27;66057;-37
2021/09/21 08:31:15;;;;;;;2.45;2.25;;;;;;;30.94;65.04;100448.22;5079636;27;69569;-36
2021/09/21 08:33:52;;;;;;;3.20;2.47;;;;;;;30.99;66.44;100456.47;5080520;27;65671;-37
2021/09/21 08:36:28;;;;;;;5.05;3.90;;;;;;;30.96;66.08;100443.41;5077159;27;69718;-38
2021/09/21 08:39:00;;;;;;;7.10;4.00;;;;;;;30.89;65.73;100439.94;5079656;27;66138;-38
2021/09/21 08:41:35;;;;;;;4.78;4.35;;;;;;;30.80;66.10;100452.16;5065808;27;69217;-36
2021/09/21 08:44:11;;;;;;;4.13;3.83;;;;;;;30.73;66.32;100477.44;5085899;27;66592;-37
2021/09/21 08:46:48;;;;;;;4.55;4.15;;;;;;;30.66;67.07;100506.47;5085829;27;70399;-36
2021/09/21 08:49:41;;;;;;;4.22;3.35;;;;;;;30.66;66.32;100506.47;5083571;27;66218;-36
2021/09/21 08:52:13;;;;;;;3.47;3.17;;;;;;;30.61;67.18;100514.44;5090628;27;70721;-37
2021/09/21 08:54:46;;;;;;;3.22;2.92;;;;;;;30.50;67.16;100518.72;5086018;27;66724;-37
2021/09/21 08:57:17;;;;;;;9.77;4.10;;;;;;;30.49;67.44;100521.66;5106599;27;70383;-36
2021/09/21 09:00:08;;;;;;;7.82;3.83;;;;;;;30.20;67.89;100464.53;5088165;27;65994;-36
2021/09/21 09:02:41;;;;;;;10.18;3.78;;;;;;;30.59;67.91;100524.69;5083501;27;70407;-35
2021/09/21 09:05:13;;;;;;;5.32;3.45;;;;;;;30.33;67.18;100489.81;5077007;27;65961;-38
2021/09/21 09:07:56;;;;;;;3.78;3.47;;;;;;;30.72;66.99;100513.66;5080108;27;69945;-34
2021/09/21 09:10:27;;;;;;;5.82;3.30;;;;;;;30.78;66.35;100505.69;5086066;27;67387;-35
2021/09/21 09:13:19;;;;;;;17.70;4.03;;;;;;;30.83;67.35;100503.16;5086951;27;69407;-35
2021/09/21 09:15:56;;;;;;;8.88;3.55;;;;;;;30.66;66.98;100468.56;5089782;27;65999;-34
2021/09/21 09:18:29;;;;;;;10.07;3.70;;;;;;;30.81;66.79;100487.13;5078060;27;70069;-34
2021/09/21 09:21:02;;;;;;;3.20;3.00;;;;;;;30.89;66.43;100500.34;5080071;27;66264;-35
2021/09/21 09:23:33;;;;;;;6.40;3.05;;;;;;;30.91;66.81;100500.94;5077690;27;70424;-34
2021/09/21 09:26:07;;;;;;;3.35;3.03;;;;;;;30.92;67.29;100499.06;5087648;27;65285;-35
2021/09/21 09:28:40;;;;;;;7.22;3.22;;;;;;;30.97;66.94;100501.09;5076874;27;69441;-34
2021/09/21 09:31:25;;;;;;;4.38;3.08;;;;;;;30.93;67.27;100500.75;5071062;27;66260;-34
2021/09/21 09:34:10;;;;;;;3.55;2.90;;;;;;;30.93;67.79;100495.31;5070747;27;69314;-35
2021/09/21 09:36:52;;;;;;;7.35;3.47;;;;;;;30.98;67.67;100495.47;5085730;27;66587;-34
2021/09/21 09:39:29;;;;;;;8.93;3.95;;;;;;;30.99;67.57;100502.53;5093010;27;69158;-34
2021/09/21 09:42:01;;;;;;;3.92;3.35;;;;;;;30.99;67.78;100499.81;5089204;27;66383;-34
2021/09/21 09:44:33;;;;;;;6.30;3.75;;;;;;;31.02;68.39;100504.75;5094733;27;69949;-35
2021/09/21 09:47:07;;;;;;;6.33;3.77;;;;;;;30.91;68.21;100481.16;5079896;27;65253;-35
2021/09/21 09:49:45;;;;;;;6.22;3.75;;;;;;;30.96;68.01;100484.03;5082171;27;69694;-34
2021/09/21 09:52:18;;;;;;;8.38;4.60;;;;;;;31.17;67.98;100517.88;5086375;27;66255;-34
2021/09/21 09:54:49;;;;;;;8.68;5.13;;;;;;;31.19;68.12;100525.78;5085677;27;70481;-34
2021/09/21 09:57:21;;;;;;;14.65;6.50;;;;;;;31.11;68.62;100503.38;5090091;27;65826;-35
2021/09/21 09:59:52;;;;;;;7.50;6.18;;;;;;;31.26;68.47;100521.94;5083054;27;69504;-35
2021/09/21 10:02:24;;;;;;;7.05;6.22;;;;;;;31.33;67.77;100543.50;5082071;27;65538;-34
2021/09/21 10:04:56;;;;;;;12.57;9.00;;;;;;;31.33;67.05;100538.06;5087135;27;70259;-35
2021/09/21 10:07:44;;;;;;;10.32;8.05;;;;;;;31.35;67.23;100541.38;5078333;27;65766;-34
2021/09/21 10:10:15;;;;;;;12.10;8.32;;;;;;;31.33;67.22;100536.19;5083809;27;69669;-34
2021/09/21 10:12:48;;;;;;;8.63;7.40;;;;;;;31.36;66.82;100537.63;5086308;27;66885;-34
2021/09/21 10:15:19;;;;;;;9.45;7.65;;;;;;;31.37;66.47;100534.72;5083723;27;69894;-34
2021/09/21 10:17:54;;;;;;;13.00;8.05;;;;;;;31.28;66.74;100516.25;5090510;27;66820;-34
2021/09/21 10:20:37;;;;;;;9.90;7.25;;;;;;;31.31;66.71;100530.16;5082534;27;69757;-35
2021/09/21 10:23:09;;;;;;;7.97;7.28;;;;;;;31.16;66.38;100499.97;5058677;27;65977;-34
2021/09/21 10:25:43;;;;;;;8.00;7.30;;;;;;;31.38;66.41;100538.25;5078647;27;70177;-35
2021/09/21 10:28:39;;;;;;;8.23;7.30;;;;;;;31.32;66.76;100537.25;5086264;27;66556;-34
2021/09/21 10:31:17;;;;;;;;;;;;;;;31.08;67.44;100552.59;5097010;27;70155;-33
2021/09/21 10:33:49;;;;;;;8.50;7.35;;;;;;;31.36;66.97;100548.47;5083622;27;66669;-33
2021/09/21 10:36:32;;;;;;;9.57;7.82;;;;;;;31.38;66.72;100552.63;5081146;27;69819;-35
2021/09/21 10:39:10;;;;;;;8.65;7.57;;;;;;;31.33;67.80;100543.50;5083968;27;66442;-35
2021/09/21 10:42:04;;;;;;;7.65;7.05;;;;;;;31.29;67.44;100548.56;5096921;27;69486;-34
2021/09/21 10:44:48;;;;;;;10.88;9.90;;;;;;;31.36;67.46;100543.88;5085653;27;66508;-35
2021/09/21 10:47:27;;;;;;;13.35;12.15;;;;;;;31.34;67.72;100546.00;5073444;27;69693;-35
2021/09/21 10:50:18;;;;;;;13.27;11.25;;;;;;;31.36;68.36;100548.47;5054506;27;65204;-34
2021/09/21 10:53:01;;;;;;;14.10;12.82;;;;;;;31.34;68.32;100550.56;5084328;27;70721;-35
2021/09/21 10:55:37;;;;;;;11.00;10.05;;;;;;;31.32;68.40;100555.41;5075753;27;66718;-35
2021/09/21 10:58:19;;;;;;;12.43;11.32;;;;;;;31.28;68.41;100573.16;5075735;27;71037;-34
2021/09/21 11:00:51;;;;;;;11.85;10.75;;;;;;;31.30;68.66;100562.94;5068587;27;65856;-35
2021/09/21 11:03:31;;;;;;;11.80;9.98;;;;;;;31.33;68.52;100573.31;5071521;27;69699;-34
2021/09/21 11:06:04;;;;;;;11.07;10.00;;;;;;;31.33;69.09;100573.31;5092224;27;66044;-34
2021/09/21 11:08:55;;;;;;;13.70;11.25;;;;;;;31.26;69.13;100569.84;5081475;27;69368;-36
2021/09/21 11:11:34;;;;;;;13.15;10.60;;;;;;;31.30;69.12;100571.06;5087803;27;65616;-35
2021/09/21 11:14:06;;;;;;;16.95;11.57;;;;;;;31.34;69.20;100572.25;5086577;27;70187;-35
2021/09/21 11:16:54;;;;;;;12.10;11.02;;;;;;;31.35;69.28;100579.34;5058167;27;65343;-35
2021/09/21 11:19:31;;;;;;;12.50;10.00;;;;;;;31.36;69.38;100576.41;5027034;28;70369;-35
2021/09/21 11:22:29;;;;;;;14.52;11.07;;;;;;;31.34;69.32;100577.66;5081469;27;66142;-34
2021/09/21 11:25:08;;;;;;;12.13;10.10;;;;;;;31.35;68.87;100580.16;5053968;27;69337;-34
2021/09/21 11:28:09;;;;;;;13.13;10.85;;;;;;;31.29;68.88;100591.09;5064955;27;66431;-33
2021/09/21 11:30:43;;;;;;;13.50;9.70;;;;;;;31.35;69.11;100601.00;5086361;27;69622;-33
2021/09/21 11:33:35;;;;;;;10.65;9.52;;;;;;;31.27;69.13;100595.91;5088872;27;66089;-35
2021/09/21 11:36:09;;;;;;;9.40;8.55;;;;;;;31.31;69.58;100616.06;5094438;27;70327;-35
2021/09/21 11:38:44;;;;;;;11.48;9.43;;;;;;;30.94;69.32;100556.53;5087246;27;65798;-35
2021/09/21 11:41:21;;;;;;;9.63;8.77;;;;;;;31.33;69.58;100620.19;5091584;27;69643;-35
2021/09/21 11:44:09;;;;;;;8.85;8.02;;;;;;;31.31;69.77;100624.19;5079574;27;65936;-35
2021/09/21 11:46:41;;;;;;;10.30;7.80;;;;;;;31.30;70.08;100625.25;5087728;27;69528;-34
2021/09/21 11:49:19;;;;;;;8.18;7.55;;;;;;;31.11;69.41;100583.81;5088166;27;66103;-36
2021/09/21 11:51:53;;;;;;;9.75;8.15;;;;;;;31.11;69.55;100595.47;5077964;27;69787;-35
2021/09/21 11:54:39;;;;;;;8.20;7.40;;;;;;;31.34;69.42;100637.28;5075004;27;66337;-34
2021/09/21 11:57:29;;;;;;;8.15;7.47;;;;;;;31.31;70.12;100640.47;5080990;27;69999;-34
2021/09/21 12:00:27;;;;;;;;;;;;;;;31.03;70.89;100652.69;5086352;27;65616;-35
2021/09/21 12:03:04;;;;;;;23.55;11.70;;;;;;;31.25;70.16;100665.78;5079921;27;69911;-34
2021/09/21 12:05:50;;;;;;;23.38;10.70;;;;;;;31.27;70.45;100671.78;5041648;27;65717;-33
2021/09/21 12:08:24;;;;;;;27.90;10.48;;;;;;;31.26;70.07;100680.97;5082721;27;70220;-34
2021/09/21 12:11:15;;;;;;;20.02;10.05;;;;;;;31.24;70.61;100696.63;5065966;27;66991;-34
2021/09/21 12:13:49;;;;;;;20.63;10.70;;;;;;;31.25;70.60;100707.25;5081355;27;69358;-34
2021/09/21 12:16:29;;;;;;;15.25;9.20;;;;;;;31.01;71.31;100671.06;5078257;27;65350;-35
2021/09/21 12:19:18;;;;;;;13.20;8.23;;;;;;;31.21;70.66;100707.94;5057388;27;69309;-34
2021/09/21 12:22:00;;;;;;;15.40;8.98;;;;;;;30.95;71.38;100682.78;5080059;27;65774;-35
2021/09/21 12:24:33;;;;;;;10.65;8.43;;;;;;;31.21;71.39;100718.78;5087580;27;70235;-34
2021/09/21 12:27:06;;;;;;;11.63;8.20;;;;;;;31.21;71.23;100721.50;5082199;27;65655;-36
2021/09/21 12:29:41;;;;;;;12.90;8.10;;;;;;;30.87;71.68;100680.38;5088314;27;69391;-34
2021/09/21 12:32:18;;;;;;;13.73;7.25;;;;;;;31.17;70.37;100723.78;5089133;27;66859;-33